Time;durP1;ratioP1;P1;durP2;ratioP2;P2;SDS_P1;SDS_P2;PMS_P1;PMS_P2;Temp;Humidity;BMP_temperature;BMP_pressure;BME280_temperature;BME280_humidity;BME280_pressure;Samples;Min_cycle;Max_cycle;Signal;HPM_P1;HPM_P2
2022/01/29 00:00:27;;;;;;;1.63;1.43;;;;;;;;;;5079654;28;20211;-76
2022/01/29 00:03:14;;;;;;;1.67;1.37;;;;;;;;;;5085844;28;20228;-75
2022/01/29 00:06:01;;;;;;;1.70;1.30;;;;;;;;;;5082183;28;20289;-76
2022/01/29 00:08:48;;;;;;;1.87;1.50;;;;;;;;;;5087014;28;20692;-77
2022/01/29 00:11:36;;;;;;;1.77;1.33;;;;;;;;;;5085836;28;20238;-77
2022/01/29 00:14:23;;;;;;;3.20;1.50;;;;;;;;;;5082912;28;20200;-77
2022/01/29 00:17:13;;;;;;;1.63;1.30;;;;;;;;;;5086372;28;20204;-75
2022/01/29 00:20:00;;;;;;;2.30;1.80;;;;;;;;;;5079382;28;20212;-77
2022/01/29 00:22:47;;;;;;;2.03;1.80;;;;;;;;;;5086291;28;20207;-77
2022/01/29 00:25:37;;;;;;;2.27;1.50;;;;;;;;;;5081393;28;20211;-75
2022/01/29 00:28:24;;;;;;;1.20;1.10;;;;;;;;;;5082809;28;20203;-76
2022/01/29 00:31:11;;;;;;;2.23;1.63;;;;;;;;;;5084564;28;20216;-76
2022/01/29 00:33:59;;;;;;;2.00;1.17;;;;;;;;;;5081277;28;20204;-76
2022/01/29 00:36:46;;;;;;;3.23;1.50;;;;;;;;;;5086320;28;20302;-77
2022/01/29 00:39:33;;;;;;;1.67;1.33;;;;;;;;;;5074243;28;20311;-77
2022/01/29 00:42:20;;;;;;;1.60;1.27;;;;;;;;;;5081215;28;20239;-78
2022/01/29 00:45:08;;;;;;;1.63;1.20;;;;;;;;;;5079177;28;20280;-77
2022/01/29 00:47:55;;;;;;;2.37;1.40;;;;;;;;;;5081422;28;20670;-77
2022/01/29 00:50:43;;;;;;;1.83;1.20;;;;;;;;;;5084942;28;20328;-77
2022/01/29 00:53:30;;;;;;;2.10;1.40;;;;;;;;;;5072581;28;20306;-77
2022/01/29 00:56:17;;;;;;;1.60;1.03;;;;;;;;;;5081531;28;20215;-77
2022/01/29 00:59:04;;;;;;;1.40;1.17;;;;;;;;;;5078306;28;20673;-76
2022/01/29 01:01:51;;;;;;;1.53;1.40;;;;;;;;;;5083058;28;20302;-76
2022/01/29 01:04:39;;;;;;;2.30;1.50;;;;;;;;;;5083653;28;20284;-77
2022/01/29 01:07:27;;;;;;;2.00;1.57;;;;;;;;;;5077892;28;20654;-77
2022/01/29 01:10:14;;;;;;;1.70;1.27;;;;;;;;;;5088981;28;20280;-76
2022/01/29 01:13:02;;;;;;;2.00;1.37;;;;;;;;;;5077257;28;20203;-77
2022/01/29 01:15:50;;;;;;;1.43;1.30;;;;;;;;;;5085489;28;20293;-77
2022/01/29 01:18:37;;;;;;;2.07;1.43;;;;;;;;;;5082603;28;20746;-76
2022/01/29 01:21:24;;;;;;;1.50;1.10;;;;;;;;;;5080076;28;20208;-76
2022/01/29 01:24:12;;;;;;;1.50;1.37;;;;;;;;;;5084139;28;20281;-77
2022/01/29 01:26:59;;;;;;;1.63;1.10;;;;;;;;;;5076733;28;20234;-77
2022/01/29 01:29:46;;;;;;;1.30;1.00;;;;;;;;;;5086678;28;20200;-77
2022/01/29 01:32:33;;;;;;;1.33;1.20;;;;;;;;;;5076424;28;20218;-77
2022/01/29 01:35:25;;;;;;;1.77;1.37;;;;;;;;;;5081011;28;20215;-77
2022/01/29 01:38:16;;;;;;;1.53;0.93;;;;;;;;;;5081163;28;20199;-77
2022/01/29 01:41:08;;;;;;;1.87;1.27;;;;;;;;;;5081431;28;20207;-76
2022/01/29 01:44:00;;;;;;;1.30;1.00;;;;;;;;;;5086865;28;20227;-77
2022/01/29 01:46:47;;;;;;;1.80;1.10;;;;;;;;;;5078805;28;20667;-77
2022/01/29 01:49:34;;;;;;;1.83;1.50;;;;;;;;;;5087059;28;20206;-76
2022/01/29 01:52:21;;;;;;;1.03;0.93;;;;;;;;;;5077623;28;20203;-76
2022/01/29 01:55:09;;;;;;;1.00;0.87;;;;;;;;;;5083443;28;20199;-77
2022/01/29 01:57:58;;;;;;;1.47;1.23;;;;;;;;;;5083089;28;20281;-77
2022/01/29 02:00:45;;;;;;;2.97;1.50;;;;;;;;;;5080023;28;20206;-76
2022/01/29 02:03:32;;;;;;;1.03;0.93;;;;;;;;;;5086519;28;20700;-77
2022/01/29 02:06:20;;;;;;;1.30;1.07;;;;;;;;;;5080647;28;20195;-74
2022/01/29 02:09:07;;;;;;;0.93;0.93;;;;;;;;;;5089429;28;20212;-76
2022/01/29 02:11:56;;;;;;;1.47;1.03;;;;;;;;;;5080336;28;20241;-76
2022/01/29 02:14:45;;;;;;;1.30;1.20;;;;;;;;;;5081673;28;20351;-77
2022/01/29 02:17:32;;;;;;;1.50;1.00;;;;;;;;;;5086607;28;20775;-76
2022/01/29 02:20:22;;;;;;;1.47;0.80;;;;;;;;;;5081342;28;20280;-76
2022/01/29 02:23:10;;;;;;;1.50;1.17;;;;;;;;;;5091952;28;20235;-76
2022/01/29 02:25:57;;;;;;;1.00;0.80;;;;;;;;;;5083515;28;20203;-76
2022/01/29 02:28:44;;;;;;;1.73;0.93;;;;;;;;;;5083340;28;20272;-76
2022/01/29 02:31:31;;;;;;;1.03;0.80;;;;;;;;;;5082668;28;20399;-73
2022/01/29 02:34:19;;;;;;;0.77;0.77;;;;;;;;;;5084410;28;20228;-76
2022/01/29 02:37:06;;;;;;;1.47;0.93;;;;;;;;;;5087703;28;20573;-75
2022/01/29 02:39:54;;;;;;;1.00;0.90;;;;;;;;;;5080061;28;20215;-77
2022/01/29 02:42:41;;;;;;;1.10;0.80;;;;;;;;;;5089703;28;20207;-76
2022/01/29 02:45:28;;;;;;;0.77;0.77;;;;;;;;;;5082893;28;20713;-76
2022/01/29 02:48:15;;;;;;;1.13;0.60;;;;;;;;;;5085173;28;20216;-76
2022/01/29 02:51:02;;;;;;;0.90;0.90;;;;;;;;;;5083270;28;20291;-76
2022/01/29 02:53:49;;;;;;;1.20;0.80;;;;;;;;;;5082709;28;20216;-76
2022/01/29 02:56:38;;;;;;;0.93;0.83;;;;;;;;;;5089865;28;20202;-76
2022/01/29 02:59:25;;;;;;;0.77;0.77;;;;;;;;;;5083145;28;20301;-76
2022/01/29 03:02:12;;;;;;;1.10;0.70;;;;;;;;;;5085406;28;20338;-76
2022/01/29 03:05:00;;;;;;;0.70;0.70;;;;;;;;;;5085243;28;20254;-76
2022/01/29 03:07:47;;;;;;;0.67;0.67;;;;;;;;;;5086426;28;20222;-76
2022/01/29 03:10:35;;;;;;;1.00;0.90;;;;;;;;;;5086817;28;20230;-76
2022/01/29 03:13:23;;;;;;;0.60;0.60;;;;;;;;;;5081383;28;20226;-76
2022/01/29 03:16:11;;;;;;;1.27;0.70;;;;;;;;;;5088186;28;20234;-76
2022/01/29 03:18:58;;;;;;;1.03;0.70;;;;;;;;;;5079602;28;20588;-76
2022/01/29 03:21:45;;;;;;;0.77;0.73;;;;;;;;;;5087096;28;20247;-76
2022/01/29 03:24:31;;;;;;;0.83;0.60;;;;;;;;;;5083847;28;20359;-76
2022/01/29 03:27:18;;;;;;;0.60;0.60;;;;;;;;;;5081009;28;20356;-76
2022/01/29 03:30:08;;;;;;;1.10;0.90;;;;;;;;;;5089807;28;20281;-76
2022/01/29 03:32:55;;;;;;;1.07;0.97;;;;;;;;;;5078472;28;20206;-75
2022/01/29 03:35:42;;;;;;;0.80;0.80;;;;;;;;;;5086895;28;20265;-75
2022/01/29 03:38:29;;;;;;;0.70;0.70;;;;;;;;;;5082075;28;20250;-76
2022/01/29 03:41:16;;;;;;;0.87;0.70;;;;;;;;;;5085934;28;20198;-76
2022/01/29 03:44:06;;;;;;;1.03;0.80;;;;;;;;;;5086375;28;20347;-76
2022/01/29 03:46:54;;;;;;;1.67;0.90;;;;;;;;;;5085251;28;20690;-76
2022/01/29 03:49:41;;;;;;;0.70;0.70;;;;;;;;;;5091359;28;20240;-76
2022/01/29 03:52:28;;;;;;;0.80;0.80;;;;;;;;;;5077570;28;20290;-76
2022/01/29 03:55:15;;;;;;;0.80;0.80;;;;;;;;;;5088191;28;20209;-76
2022/01/29 03:58:02;;;;;;;0.87;0.83;;;;;;;;;;5083326;28;20248;-76
2022/01/29 04:00:49;;;;;;;0.60;0.60;;;;;;;;;;5083796;28;20203;-76
2022/01/29 04:03:38;;;;;;;1.60;0.77;;;;;;;;;;5086687;28;20265;-76
2022/01/29 04:06:25;;;;;;;0.50;0.50;;;;;;;;;;5080555;28;20234;-76
2022/01/29 04:09:12;;;;;;;0.77;0.70;;;;;;;;;;5089088;28;20285;-76
2022/01/29 04:11:59;;;;;;;0.57;0.57;;;;;;;;;;5077935;28;20232;-76
2022/01/29 04:14:46;;;;;;;0.53;0.53;;;;;;;;;;5085467;28;20234;-75
2022/01/29 04:17:33;;;;;;;0.70;0.63;;;;;;;;;;5079046;28;20244;-76
2022/01/29 04:20:21;;;;;;;1.10;0.70;;;;;;;;;;5082056;28;20218;-76
2022/01/29 04:23:09;;;;;;;0.50;0.50;;;;;;;;;;5081591;28;20203;-76
2022/01/29 04:25:56;;;;;;;0.70;0.70;;;;;;;;;;5079076;28;20275;-76
2022/01/29 04:28:44;;;;;;;0.57;0.50;;;;;;;;;;5088772;28;20716;-76
2022/01/29 04:31:38;;;;;;;0.60;0.60;;;;;;;;;;5080673;28;20260;-75
2022/01/29 04:34:25;;;;;;;0.80;0.70;;;;;;;;;;5085606;28;20218;-76
2022/01/29 04:37:13;;;;;;;0.77;0.57;;;;;;;;;;5079529;28;20216;-76
2022/01/29 04:40:00;;;;;;;0.90;0.90;;;;;;;;;;5083526;28;20227;-76
2022/01/29 04:42:47;;;;;;;0.60;0.60;;;;;;;;;;5087601;28;20288;-76
2022/01/29 04:45:34;;;;;;;0.70;0.70;;;;;;;;;;5080925;28;20326;-76
2022/01/29 04:48:21;;;;;;;0.60;0.60;;;;;;;;;;5087377;28;20575;-76
2022/01/29 04:51:08;;;;;;;0.40;0.40;;;;;;;;;;5080625;28;20282;-76
2022/01/29 04:53:56;;;;;;;0.50;0.50;;;;;;;;;;5081722;28;20281;-76
2022/01/29 04:56:43;;;;;;;0.40;0.40;;;;;;;;;;5086810;28;20194;-76
2022/01/29 04:59:30;;;;;;;0.70;0.40;;;;;;;;;;5082179;28;20358;-76
2022/01/29 05:02:17;;;;;;;0.47;0.47;;;;;;;;;;5086656;28;20299;-76
2022/01/29 05:05:05;;;;;;;0.53;0.50;;;;;;;;;;5079857;28;20219;-76
2022/01/29 05:07:52;;;;;;;0.40;0.40;;;;;;;;;;5087466;28;20289;-76
2022/01/29 05:10:41;;;;;;;0.57;0.57;;;;;;;;;;5079094;28;20707;-76
2022/01/29 05:13:30;;;;;;;0.43;0.43;;;;;;;;;;5083493;28;20206;-76
2022/01/29 05:16:35;;;;;;;0.40;0.40;;;;;;;;;;5085278;28;20203;-76
2022/01/29 05:28:38;;;;;;;0.30;0.30;;;;;;;;;;5080375;28;20215;-76
2022/01/29 05:31:26;;;;;;;0.40;0.40;;;;;;;;;;5086032;28;20208;-76
2022/01/29 05:34:15;;;;;;;0.30;0.30;;;;;;;;;;5075992;28;20667;-76
2022/01/29 05:37:03;;;;;;;0.40;0.40;;;;;;;;;;5082627;28;20248;-76
2022/01/29 05:39:49;;;;;;;0.50;0.50;;;;;;;;;;5082405;28;20221;-76
2022/01/29 05:42:36;;;;;;;0.30;0.30;;;;;;;;;;5087500;28;20290;-76
2022/01/29 05:45:25;;;;;;;0.40;0.40;;;;;;;;;;5088468;28;20313;-76
2022/01/29 05:48:12;;;;;;;0.50;0.50;;;;;;;;;;5080995;28;20568;-76
2022/01/29 05:50:59;;;;;;;0.30;0.30;;;;;;;;;;5089533;28;20199;-76
2022/01/29 05:53:46;;;;;;;0.33;0.33;;;;;;;;;;5086494;28;20268;-76
2022/01/29 05:56:32;;;;;;;0.40;0.40;;;;;;;;;;5089668;28;20296;-76
2022/01/29 05:59:19;;;;;;;0.30;0.30;;;;;;;;;;5086849;28;20309;-76
2022/01/29 06:02:08;;;;;;;0.50;0.40;;;;;;;;;;5086170;28;20230;-75
2022/01/29 06:04:54;;;;;;;0.20;0.20;;;;;;;;;;5090211;28;20287;-76
2022/01/29 06:07:41;;;;;;;0.20;0.20;;;;;;;;;;5081317;28;20376;-76
2022/01/29 06:10:29;;;;;;;0.30;0.30;;;;;;;;;;5089548;28;20319;-76
2022/01/29 06:13:17;;;;;;;0.30;0.30;;;;;;;;;;5082625;28;20342;-76
2022/01/29 06:16:04;;;;;;;0.30;0.30;;;;;;;;;;5089591;28;20288;-76
2022/01/29 06:18:52;;;;;;;0.30;0.30;;;;;;;;;;5088332;28;20302;-77
2022/01/29 06:21:39;;;;;;;0.57;0.40;;;;;;;;;;5084596;28;20207;-76
2022/01/29 06:24:26;;;;;;;0.40;0.40;;;;;;;;;;5091418;28;20257;-76
2022/01/29 06:27:13;;;;;;;0.30;0.30;;;;;;;;;;5081371;28;20211;-76
2022/01/29 06:30:00;;;;;;;0.27;0.27;;;;;;;;;;5089546;28;20224;-76
2022/01/29 06:32:47;;;;;;;0.30;0.30;;;;;;;;;;5084297;28;20713;-76
2022/01/29 06:35:36;;;;;;;0.20;0.20;;;;;;;;;;5083854;28;20302;-76
2022/01/29 06:38:24;;;;;;;0.20;0.20;;;;;;;;;;5088527;28;20200;-76
2022/01/29 06:41:11;;;;;;;0.23;0.23;;;;;;;;;;5078509;28;20338;-75
2022/01/29 06:43:58;;;;;;;0.20;0.20;;;;;;;;;;5089836;28;20204;-77
2022/01/29 06:46:45;;;;;;;0.33;0.33;;;;;;;;;;5078894;28;20938;-76
2022/01/29 06:49:32;;;;;;;0.30;0.30;;;;;;;;;;5089959;28;20301;-76
2022/01/29 06:52:20;;;;;;;0.30;0.30;;;;;;;;;;5083686;28;20211;-76
2022/01/29 06:55:09;;;;;;;0.20;0.20;;;;;;;;;;5084625;28;20235;-76
2022/01/29 06:57:56;;;;;;;0.20;0.20;;;;;;;;;;5087008;28;20211;-76
2022/01/29 07:00:43;;;;;;;0.20;0.20;;;;;;;;;;5081034;28;20297;-76
2022/01/29 07:03:30;;;;;;;0.20;0.20;;;;;;;;;;5091919;28;20243;-76
2022/01/29 07:06:17;;;;;;;0.37;0.37;;;;;;;;;;5079723;28;20260;-76
2022/01/29 07:09:06;;;;;;;0.40;0.40;;;;;;;;;;5087382;28;20244;-76
2022/01/29 07:11:56;;;;;;;0.30;0.30;;;;;;;;;;5087234;28;20695;-76
2022/01/29 07:14:43;;;;;;;0.30;0.30;;;;;;;;;;5084804;28;20245;-76
2022/01/29 07:17:30;;;;;;;0.30;0.30;;;;;;;;;;5091562;28;20268;-76
2022/01/29 07:20:17;;;;;;;0.40;0.40;;;;;;;;;;5080097;28;20282;-76
2022/01/29 07:23:06;;;;;;;0.27;0.27;;;;;;;;;;5085203;28;20261;-76
2022/01/29 07:25:54;;;;;;;0.30;0.20;;;;;;;;;;5083955;28;20219;-76
2022/01/29 07:28:41;;;;;;;0.30;0.30;;;;;;;;;;5086858;28;20289;-76
2022/01/29 07:31:28;;;;;;;0.27;0.27;;;;;;;;;;5085522;28;20199;-76
2022/01/29 07:34:15;;;;;;;0.30;0.30;;;;;;;;;;5080526;28;20297;-76
2022/01/29 07:37:03;;;;;;;0.23;0.23;;;;;;;;;;5091104;28;20210;-76
2022/01/29 07:39:50;;;;;;;0.20;0.20;;;;;;;;;;5081395;28;20231;-76
2022/01/29 07:42:38;;;;;;;0.20;0.20;;;;;;;;;;5086429;28;20226;-76
2022/01/29 07:45:26;;;;;;;0.30;0.30;;;;;;;;;;5083500;28;20275;-76
2022/01/29 07:48:13;;;;;;;0.40;0.40;;;;;;;;;;5082661;28;20652;-76
2022/01/29 07:51:00;;;;;;;0.57;0.30;;;;;;;;;;5086652;28;20720;-76
2022/01/29 07:53:47;;;;;;;0.40;0.40;;;;;;;;;;5081773;28;20315;-76
2022/01/29 07:56:34;;;;;;;0.20;0.20;;;;;;;;;;5088048;28;20214;-76
2022/01/29 07:59:23;;;;;;;0.30;0.30;;;;;;;;;;5080839;28;20204;-76
2022/01/29 08:02:10;;;;;;;0.30;0.30;;;;;;;;;;5086662;28;20219;-76
2022/01/29 08:04:57;;;;;;;0.30;0.30;;;;;;;;;;5083850;28;20693;-75
2022/01/29 08:07:44;;;;;;;0.60;0.60;;;;;;;;;;5080300;28;20242;-76
2022/01/29 08:10:34;;;;;;;0.40;0.40;;;;;;;;;;5086688;28;20227;-76
2022/01/29 08:13:21;;;;;;;0.30;0.30;;;;;;;;;;5077599;28;20297;-75
2022/01/29 08:16:09;;;;;;;0.23;0.23;;;;;;;;;;5087724;28;20211;-76
2022/01/29 08:18:56;;;;;;;0.20;0.20;;;;;;;;;;5082915;28;20296;-76
2022/01/29 08:21:43;;;;;;;0.30;0.30;;;;;;;;;;5082177;28;20212;-76
2022/01/29 08:24:31;;;;;;;0.20;0.20;;;;;;;;;;5084597;28;20706;-77
2022/01/29 08:27:17;;;;;;;0.30;0.30;;;;;;;;;;5081526;28;20304;-76
2022/01/29 08:30:06;;;;;;;0.30;0.30;;;;;;;;;;5089630;28;20594;-76
2022/01/29 08:32:54;;;;;;;0.30;0.30;;;;;;;;;;5078223;28;20242;-77
2022/01/29 08:35:41;;;;;;;0.30;0.30;;;;;;;;;;5087732;28;20224;-76
2022/01/29 08:38:28;;;;;;;0.30;0.30;;;;;;;;;;5081509;28;20207;-76
2022/01/29 08:41:15;;;;;;;0.30;0.30;;;;;;;;;;5083067;28;20290;-76
2022/01/29 08:44:02;;;;;;;0.20;0.20;;;;;;;;;;5087281;28;20324;-76
2022/01/29 08:46:49;;;;;;;0.20;0.20;;;;;;;;;;5079446;28;20270;-76
2022/01/29 08:49:38;;;;;;;0.30;0.30;;;;;;;;;;5085370;28;20284;-76
2022/01/29 08:52:25;;;;;;;0.20;0.20;;;;;;;;;;5077775;28;20215;-76
2022/01/29 08:55:12;;;;;;;0.30;0.30;;;;;;;;;;5086850;28;20235;-76
2022/01/29 08:57:59;;;;;;;0.27;0.27;;;;;;;;;;5082748;28;20260;-76
2022/01/29 09:00:47;;;;;;;0.20;0.20;;;;;;;;;;5080954;28;20222;-77
2022/01/29 09:03:34;;;;;;;0.30;0.30;;;;;;;;;;5087025;28;20246;-76
2022/01/29 09:06:23;;;;;;;0.20;0.20;;;;;;;;;;5076653;28;20224;-77
2022/01/29 09:09:10;;;;;;;0.23;0.23;;;;;;;;;;5080767;28;20248;-77
2022/01/29 09:11:57;;;;;;;0.20;0.20;;;;;;;;;;5076107;28;20264;-77
2022/01/29 09:14:45;;;;;;;0.20;0.20;;;;;;;;;;5080002;28;20242;-77
2022/01/29 09:17:32;;;;;;;0.40;0.23;;;;;;;;;;5082113;28;20211;-76
2022/01/29 09:20:18;;;;;;;0.40;0.40;;;;;;;;;;5079745;28;20229;-76
2022/01/29 09:23:08;;;;;;;0.30;0.30;;;;;;;;;;5077095;28;20234;-76
2022/01/29 09:25:55;;;;;;;0.57;0.57;;;;;;;;;;5080774;28;20224;-76
2022/01/29 09:28:42;;;;;;;0.60;0.60;;;;;;;;;;5083079;28;20207;-77
2022/01/29 09:31:29;;;;;;;0.50;0.50;;;;;;;;;;5076661;28;20207;-74
2022/01/29 09:34:16;;;;;;;0.50;0.50;;;;;;;;;;5080845;28;20288;-76
2022/01/29 09:37:04;;;;;;;0.60;0.60;;;;;;;;;;5082997;28;20206;-76
2022/01/29 09:39:53;;;;;;;0.30;0.30;;;;;;;;;;5075202;28;20265;-76
2022/01/29 09:42:40;;;;;;;0.30;0.30;;;;;;;;;;5080325;28;20681;-75
2022/01/29 09:45:27;;;;;;;0.40;0.40;;;;;;;;;;5078097;28;20208;-75
2022/01/29 09:48:15;;;;;;;0.50;0.50;;;;;;;;;;5084164;28;20230;-76
2022/01/29 09:51:04;;;;;;;0.30;0.30;;;;;;;;;;5080398;28;20570;-75
2022/01/29 09:53:51;;;;;;;0.40;0.40;;;;;;;;;;5079970;28;20215;-76
2022/01/29 09:56:40;;;;;;;0.30;0.30;;;;;;;;;;5079213;28;20204;-76
2022/01/29 09:59:27;;;;;;;0.40;0.40;;;;;;;;;;5077004;28;20711;-76
2022/01/29 10:02:16;;;;;;;0.33;0.33;;;;;;;;;;5082303;28;20267;-74
2022/01/29 10:05:04;;;;;;;0.33;0.33;;;;;;;;;;5076367;28;20218;-77
2022/01/29 10:08:01;;;;;;;0.30;0.30;;;;;;;;;;5078917;28;20227;-77
2022/01/29 10:10:49;;;;;;;0.30;0.30;;;;;;;;;;5080760;28;20264;-76
2022/01/29 10:13:38;;;;;;;0.30;0.30;;;;;;;;;;5081754;28;20203;-77
2022/01/29 10:16:27;;;;;;;0.57;0.40;;;;;;;;;;5083135;28;20206;-75
2022/01/29 10:19:14;;;;;;;1.17;0.30;;;;;;;;;;5078460;28;20564;-77
2022/01/29 10:22:01;;;;;;;0.30;0.30;;;;;;;;;;5079714;28;20230;-76
2022/01/29 10:24:50;;;;;;;0.40;0.40;;;;;;;;;;5082911;28;20209;-76
2022/01/29 10:27:37;;;;;;;0.40;0.40;;;;;;;;;;5085362;28;20219;-76
2022/01/29 10:30:25;;;;;;;0.47;0.47;;;;;;;;;;5086260;28;20279;-76
2022/01/29 10:33:18;;;;;;;0.30;0.30;;;;;;;;;;5082268;28;20211;-77
2022/01/29 10:36:07;;;;;;;0.23;0.23;;;;;;;;;;5088766;28;20222;-75
2022/01/29 10:38:57;;;;;;;0.40;0.40;;;;;;;;;;5083998;28;20225;-77
2022/01/29 10:41:44;;;;;;;0.30;0.30;;;;;;;;;;5089260;28;20681;-75
2022/01/29 10:44:42;;;;;;;0.57;0.40;;;;;;;;;;5083549;28;20233;-76
2022/01/29 10:47:31;;;;;;;0.40;0.40;;;;;;;;;;5079431;28;20297;-75
2022/01/29 10:50:18;;;;;;;0.63;0.37;;;;;;;;;;5086032;28;20215;-75
2022/01/29 10:53:24;;;;;;;0.50;0.50;;;;;;;;;;5081154;28;20235;-76
2022/01/29 10:56:11;;;;;;;0.70;0.60;;;;;;;;;;5081331;28;20221;-76
2022/01/29 10:58:58;;;;;;;0.40;0.40;;;;;;;;;;5084152;28;21510;-76
2022/01/29 11:01:50;;;;;;;0.87;0.70;;;;;;;;;;5083353;28;20205;-76
2022/01/29 11:04:40;;;;;;;0.50;0.50;;;;;;;;;;5083077;28;20319;-76
2022/01/29 11:07:29;;;;;;;0.77;0.70;;;;;;;;;;5083164;28;20318;-75
2022/01/29 11:10:17;;;;;;;0.90;0.80;;;;;;;;;;5082904;28;20204;-77
2022/01/29 11:13:04;;;;;;;0.97;0.83;;;;;;;;;;5081419;28;20236;-77
2022/01/29 11:15:52;;;;;;;1.53;0.90;;;;;;;;;;5082706;28;20208;-76
2022/01/29 11:18:40;;;;;;;1.10;0.90;;;;;;;;;;5082882;28;20241;-76
2022/01/29 11:21:30;;;;;;;1.37;0.90;;;;;;;;;;5082139;28;20276;-77
2022/01/29 11:24:19;;;;;;;1.50;0.93;;;;;;;;;;5085473;28;20614;-76
2022/01/29 11:27:23;;;;;;;1.40;1.30;;;;;;;;;;5082731;28;20239;-76
2022/01/29 11:30:14;;;;;;;1.10;1.00;;;;;;;;;;5082079;28;20293;-77
2022/01/29 11:33:01;;;;;;;1.77;1.00;;;;;;;;;;5079843;28;20619;-76
2022/01/29 11:35:53;;;;;;;1.20;1.10;;;;;;;;;;5081665;28;20222;-76
2022/01/29 11:38:42;;;;;;;1.20;1.10;;;;;;;;;;5088340;28;20203;-77
2022/01/29 11:41:29;;;;;;;1.00;1.00;;;;;;;;;;5079531;28;20701;-76
2022/01/29 11:44:26;;;;;;;2.17;1.23;;;;;;;;;;5083831;28;20207;-77
2022/01/29 11:47:46;;;;;;;1.23;1.17;;;;;;;;;;5081338;28;20301;-76
2022/01/29 11:50:45;;;;;;;2.17;1.30;;;;;;;;;;5078404;28;20243;-76
2022/01/29 11:53:58;;;;;;;1.93;1.30;;;;;;;;;;5090125;28;20218;-75
2022/01/29 11:56:45;;;;;;;1.60;1.30;;;;;;;;;;5082268;28;20234;-75
2022/01/29 11:59:34;;;;;;;1.57;1.47;;;;;;;;;;5080417;28;20211;-75
2022/01/29 12:02:42;;;;;;;1.57;1.47;;;;;;;;;;5084960;28;20203;-75
2022/01/29 12:05:31;;;;;;;2.13;1.40;;;;;;;;;;5079865;28;20231;-74
2022/01/29 12:08:20;;;;;;;1.67;1.50;;;;;;;;;;5085785;28;20224;-74
2022/01/29 12:11:12;;;;;;;1.53;1.40;;;;;;;;;;5079788;28;20238;-74
2022/01/29 12:14:27;;;;;;;1.60;1.50;;;;;;;;;;5085105;28;20675;-74
2022/01/29 12:17:40;;;;;;;1.57;1.30;;;;;;;;;;5085983;28;20232;-75
2022/01/29 12:20:29;;;;;;;1.90;1.70;;;;;;;;;;5078793;28;20654;-75
2022/01/29 12:23:15;;;;;;;2.47;1.60;;;;;;;;;;5087623;28;20231;-74
2022/01/29 12:26:02;;;;;;;1.23;1.13;;;;;;;;;;5084292;28;20234;-69
2022/01/29 12:28:52;;;;;;;1.40;1.30;;;;;;;;;;5079151;28;20294;-70
2022/01/29 12:31:49;;;;;;;1.53;1.27;;;;;;;;;;5084942;28;20321;-70
2022/01/29 12:34:36;;;;;;;1.40;1.30;;;;;;;;;;5078074;28;20895;-71
2022/01/29 12:37:23;;;;;;;2.40;1.70;;;;;;;;;;5087680;28;20216;-69
2022/01/29 12:40:19;;;;;;;3.00;1.70;;;;;;;;;;5078294;28;20301;-70
2022/01/29 12:43:22;;;;;;;1.43;1.23;;;;;;;;;;5078018;28;20256;-70
2022/01/29 12:46:13;;;;;;;1.43;1.33;;;;;;;;;;5080517;28;20205;-69
2022/01/29 12:49:05;;;;;;;2.40;1.40;;;;;;;;;;5076817;28;20234;-71
2022/01/29 12:51:55;;;;;;;1.80;1.50;;;;;;;;;;5086720;28;20202;-70
2022/01/29 12:54:51;;;;;;;1.17;1.07;;;;;;;;;;5080897;28;20203;-70
2022/01/29 12:57:43;;;;;;;1.90;1.50;;;;;;;;;;5082545;28;20662;-70
2022/01/29 13:00:31;;;;;;;1.47;1.03;;;;;;;;;;5083543;28;20203;-70
2022/01/29 13:03:27;;;;;;;2.13;1.30;;;;;;;;;;5077069;28;20660;-70
2022/01/29 13:06:16;;;;;;;1.77;1.30;;;;;;;;;;5088722;28;20779;-70
2022/01/29 13:09:14;;;;;;;1.57;1.10;;;;;;;;;;5080584;28;20202;-69
2022/01/29 13:12:02;;;;;;;2.40;1.70;;;;;;;;;;5082280;28;20246;-70
2022/01/29 13:14:50;;;;;;;1.57;1.20;;;;;;;;;;5082118;28;20239;-69
2022/01/29 13:17:42;;;;;;;2.53;1.57;;;;;;;;;;5080409;28;20352;-70
2022/01/29 13:20:30;;;;;;;1.40;1.30;;;;;;;;;;5086067;28;20211;-69
2022/01/29 13:23:17;;;;;;;1.43;1.33;;;;;;;;;;5075940;28;20739;-70
2022/01/29 13:26:15;;;;;;;1.80;1.50;;;;;;;;;;5084092;28;20293;-70
2022/01/29 13:29:05;;;;;;;1.87;1.30;;;;;;;;;;5082473;28;20336;-69
2022/01/29 13:31:52;;;;;;;1.30;1.20;;;;;;;;;;5081793;28;20206;-69
2022/01/29 13:34:41;;;;;;;1.47;1.30;;;;;;;;;;5087395;28;20237;-70
2022/01/29 13:37:31;;;;;;;1.63;1.30;;;;;;;;;;5074031;28;20234;-70
2022/01/29 13:40:20;;;;;;;1.87;1.47;;;;;;;;;;5081522;28;20336;-71
2022/01/29 13:43:08;;;;;;;1.63;1.37;;;;;;;;;;5078062;28;20207;-70
2022/01/29 13:45:57;;;;;;;1.90;1.57;;;;;;;;;;5082011;28;20673;-70
2022/01/29 13:48:47;;;;;;;1.70;1.40;;;;;;;;;;5082176;28;20771;-69
2022/01/29 13:51:36;;;;;;;2.50;1.20;;;;;;;;;;5075063;28;20583;-69
2022/01/29 13:54:25;;;;;;;1.40;1.30;;;;;;;;;;5087382;28;20653;-69
2022/01/29 13:57:12;;;;;;;1.53;1.43;;;;;;;;;;5075480;28;20231;-69
2022/01/29 14:00:02;;;;;;;1.40;1.30;;;;;;;;;;5080839;28;20211;-69
2022/01/29 14:02:49;;;;;;;2.47;1.20;;;;;;;;;;5086545;28;20283;-70
2022/01/29 14:05:36;;;;;;;1.57;1.10;;;;;;;;;;5082286;28;21289;-69
2022/01/29 14:08:23;;;;;;;1.83;1.20;;;;;;;;;;5088994;28;20279;-69
2022/01/29 14:11:15;;;;;;;1.73;1.33;;;;;;;;;;5083187;28;20701;-71
2022/01/29 14:14:02;;;;;;;1.23;1.13;;;;;;;;;;5088745;28;20660;-69
2022/01/29 14:16:49;;;;;;;1.00;0.90;;;;;;;;;;5084300;28;20236;-71
2022/01/29 14:19:38;;;;;;;1.30;1.10;;;;;;;;;;5084416;28;20215;-71
2022/01/29 14:22:26;;;;;;;1.40;1.20;;;;;;;;;;5083631;28;20206;-69
2022/01/29 14:25:18;;;;;;;1.20;1.10;;;;;;;;;;5083547;28;20211;-70
2022/01/29 14:28:06;;;;;;;1.20;1.00;;;;;;;;;;5090755;28;20229;-70
2022/01/29 14:30:53;;;;;;;2.03;1.30;;;;;;;;;;5082330;28;20732;-70
2022/01/29 14:33:40;;;;;;;0.90;0.90;;;;;;;;;;5086252;28;20686;-69
2022/01/29 14:36:27;;;;;;;0.73;0.73;;;;;;;;;;5082979;28;20222;-69
2022/01/29 14:39:17;;;;;;;2.73;1.00;;;;;;;;;;5080993;28;20290;-71
2022/01/29 14:42:07;;;;;;;2.73;0.97;;;;;;;;;;5088673;28;20206;-70
2022/01/29 14:44:56;;;;;;;1.60;0.90;;;;;;;;;;5080011;28;20217;-70
2022/01/29 14:47:46;;;;;;;0.60;0.60;;;;;;;;;;5087642;28;20293;-70
2022/01/29 14:50:33;;;;;;;0.77;0.73;;;;;;;;;;5081706;28;20210;-70
2022/01/29 14:53:22;;;;;;;0.70;0.70;;;;;;;;;;5087612;28;20618;-70
2022/01/29 14:56:08;;;;;;;0.70;0.70;;;;;;;;;;5085537;28;20198;-71
2022/01/29 14:58:56;;;;;;;0.73;0.73;;;;;;;;;;5081790;28;20268;-70
2022/01/29 15:01:44;;;;;;;0.73;0.67;;;;;;;;;;5088598;28;20747;-70
2022/01/29 15:04:31;;;;;;;0.87;0.83;;;;;;;;;;5081088;28;20238;-70
2022/01/29 15:07:18;;;;;;;0.80;0.80;;;;;;;;;;5086139;28;20280;-71
2022/01/29 15:10:07;;;;;;;1.30;1.07;;;;;;;;;;5082412;28;20207;-69
2022/01/29 15:12:54;;;;;;;1.93;1.10;;;;;;;;;;5084042;28;20792;-69
2022/01/29 15:15:41;;;;;;;1.30;1.10;;;;;;;;;;5084915;28;20681;-70
2022/01/29 15:18:30;;;;;;;1.40;0.90;;;;;;;;;;5080003;28;20203;-69
2022/01/29 15:21:17;;;;;;;3.17;1.17;;;;;;;;;;5085647;28;20210;-70
2022/01/29 15:24:04;;;;;;;1.30;1.20;;;;;;;;;;5077737;28;20324;-69
2022/01/29 15:26:51;;;;;;;2.67;1.50;;;;;;;;;;5085989;28;20199;-70
2022/01/29 15:29:38;;;;;;;3.13;1.77;;;;;;;;;;5081855;28;20304;-70
2022/01/29 15:32:26;;;;;;;4.80;1.73;;;;;;;;;;5083152;28;20353;-69
2022/01/29 15:35:15;;;;;;;2.33;1.67;;;;;;;;;;5085078;28;20223;-69
2022/01/29 15:38:02;;;;;;;2.33;1.57;;;;;;;;;;5078519;28;20195;-69
2022/01/29 15:40:50;;;;;;;3.77;2.10;;;;;;;;;;5086520;28;20281;-69
2022/01/29 15:43:39;;;;;;;3.37;2.03;;;;;;;;;;5078311;28;20237;-69
2022/01/29 15:46:26;;;;;;;5.30;2.17;;;;;;;;;;5081258;28;20215;-70
2022/01/29 15:49:13;;;;;;;6.23;2.20;;;;;;;;;;5083202;28;20233;-69
2022/01/29 15:52:01;;;;;;;4.13;2.00;;;;;;;;;;5079291;28;20242;-70
2022/01/29 15:54:51;;;;;;;3.97;2.40;;;;;;;;;;5084562;28;20580;-70
2022/01/29 15:57:40;;;;;;;3.33;2.57;;;;;;;;;;5077316;28;20211;-71
2022/01/29 16:00:27;;;;;;;4.37;2.23;;;;;;;;;;5086774;28;20698;-70
2022/01/29 16:03:14;;;;;;;5.07;2.50;;;;;;;;;;5079419;28;20549;-69
2022/01/29 16:06:01;;;;;;;3.87;2.60;;;;;;;;;;5081183;28;20700;-69
2022/01/29 16:08:51;;;;;;;5.13;2.63;;;;;;;;;;5084533;28;20721;-70
2022/01/29 16:11:37;;;;;;;4.73;2.90;;;;;;;;;;5078413;28;20234;-70
2022/01/29 16:14:25;;;;;;;5.27;2.57;;;;;;;;;;5086674;28;20783;-71
2022/01/29 16:17:12;;;;;;;4.87;2.70;;;;;;;;;;5077785;28;20207;-69
2022/01/29 16:19:59;;;;;;;4.10;2.23;;;;;;;;;;5086767;28;20283;-69
2022/01/29 16:22:46;;;;;;;5.53;2.93;;;;;;;;;;5082902;28;20218;-70
2022/01/29 16:25:37;;;;;;;3.80;2.50;;;;;;;;;;5079038;28;20214;-70
2022/01/29 16:28:24;;;;;;;6.27;2.67;;;;;;;;;;5082856;28;20635;-69
2022/01/29 16:31:12;;;;;;;6.03;2.83;;;;;;;;;;5079718;28;20344;-70
2022/01/29 16:33:59;;;;;;;3.70;2.50;;;;;;;;;;5086537;28;20211;-70
2022/01/29 16:36:46;;;;;;;4.63;2.63;;;;;;;;;;5077418;28;20271;-71
2022/01/29 16:39:33;;;;;;;6.40;3.17;;;;;;;;;;5081730;28;20215;-70
2022/01/29 16:42:21;;;;;;;4.27;2.50;;;;;;;;;;5083356;28;20213;-70
2022/01/29 16:45:10;;;;;;;4.83;2.70;;;;;;;;;;5077493;28;20304;-70
2022/01/29 16:47:57;;;;;;;5.50;2.93;;;;;;;;;;5084541;28;20331;-70
2022/01/29 16:50:46;;;;;;;5.07;2.93;;;;;;;;;;5076696;28;21002;-69
2022/01/29 16:53:33;;;;;;;5.03;2.90;;;;;;;;;;5086346;28;20218;-69
2022/01/29 16:56:20;;;;;;;4.33;2.90;;;;;;;;;;5078411;28;20226;-70
2022/01/29 16:59:09;;;;;;;4.33;2.70;;;;;;;;;;5084522;28;20218;-69